Time;durP1;ratioP1;P1;durP2;ratioP2;P2;SDS_P1;SDS_P2;PMS_P1;PMS_P2;Temp;Humidity;BMP_temperature;BMP_pressure;BME280_temperature;BME280_humidity;BME280_pressure;Samples;Min_cycle;Max_cycle;Signal;HPM_P1;HPM_P2
2022/07/08 00:05:40;;;;;;;2.70;1.95;;;;;;;20.70;50.83;100575.56;18562122;32;20133;-55
2022/07/08 00:15:45;;;;;;;4.45;2.10;;;;;;;20.61;51.17;100564.41;18562492;32;20110;-55
2022/07/08 00:25:48;;;;;;;2.28;1.60;;;;;;;20.37;51.85;100555.66;18562008;32;20088;-56
2022/07/08 00:35:53;;;;;;;2.17;1.48;;;;;;;20.32;51.62;100536.44;18561993;32;20092;-56
2022/07/08 00:45:56;;;;;;;3.72;1.80;;;;;;;20.25;51.94;100562.31;18561146;32;20088;-55
2022/07/08 00:56:01;;;;;;;2.47;1.70;;;;;;;20.09;52.32;100551.47;18561146;32;20097;-56
2022/07/08 01:06:04;;;;;;;2.47;1.70;;;;;;;19.93;53.28;100548.53;18560724;32;20115;-55
2022/07/08 01:16:09;;;;;;;6.50;1.80;;;;;;;20.17;52.46;100545.87;18558881;32;20092;-55
2022/07/08 01:26:14;;;;;;;3.37;1.70;;;;;;;19.53;54.87;100554.41;18545239;32;20097;-55
2022/07/08 01:36:18;;;;;;;3.20;1.92;;;;;;;19.38;55.51;100553.19;18560155;32;20115;-55
2022/07/08 01:46:22;;;;;;;4.18;2.12;;;;;;;19.44;55.68;100548.63;18558752;32;20153;-56
2022/07/08 01:56:26;;;;;;;3.47;1.90;;;;;;;19.70;55.01;100544.97;18558287;32;20534;-55
2022/07/08 02:06:30;;;;;;;4.87;2.20;;;;;;;19.18;56.87;100542.47;18558448;32;20088;-55
2022/07/08 02:16:33;;;;;;;2.47;2.00;;;;;;;18.99;57.27;100554.56;18556642;32;20119;-56
2022/07/08 02:26:38;;;;;;;3.30;1.95;;;;;;;19.26;56.23;100546.59;18558034;32;20111;-56
2022/07/08 02:36:41;;;;;;;2.90;1.70;;;;;;;19.25;56.56;100544.88;18565654;32;20088;-55
2022/07/08 02:46:46;;;;;;;4.05;1.80;;;;;;;18.95;57.38;100545.00;18564549;32;20123;-55
2022/07/08 02:56:49;;;;;;;2.28;1.80;;;;;;;18.80;58.29;100561.41;18564784;32;20477;-55
2022/07/08 03:06:54;;;;;;;3.87;1.80;;;;;;;18.92;58.27;100562.75;18565338;32;20453;-55
2022/07/08 03:16:57;;;;;;;2.75;1.75;;;;;;;18.78;58.28;100571.16;18564062;32;20092;-55
2022/07/08 03:27:02;;;;;;;4.37;2.10;;;;;;;19.04;57.84;100575.59;18563758;32;20110;-55
2022/07/08 03:37:05;;;;;;;3.45;1.80;;;;;;;19.33;57.78;100578.09;18562547;32;20100;-55
2022/07/08 03:47:10;;;;;;;3.53;1.90;;;;;;;19.52;57.39;100579.16;18562973;32;20101;-55
2022/07/08 03:57:13;;;;;;;3.70;1.90;;;;;;;19.56;57.81;100579.91;18563108;32;20141;-55
2022/07/08 04:07:18;;;;;;;2.97;1.77;;;;;;;19.83;57.10;100587.75;18562606;32;20128;-55
2022/07/08 04:17:21;;;;;;;3.58;1.60;;;;;;;20.04;56.74;100591.41;18562377;32;20112;-55
2022/07/08 04:27:25;;;;;;;5.18;1.80;;;;;;;20.33;56.83;100607.94;18562146;32;20097;-55
2022/07/08 04:37:29;;;;;;;3.75;1.90;;;;;;;20.87;55.87;100609.34;18581723;31;20118;-56
2022/07/08 04:47:33;;;;;;;3.72;1.80;;;;;;;21.52;53.43;100617.19;18565828;31;20092;-55
2022/07/08 04:57:37;;;;;;;3.37;1.67;;;;;;;21.72;51.50;100631.38;18595071;31;20116;-55
2022/07/08 05:07:41;;;;;;;2.87;1.62;;;;;;;22.24;49.70;100637.84;18561914;32;20088;-56
2022/07/08 05:17:44;;;;;;;4.35;1.60;;;;;;;22.92;48.77;100639.94;18560227;32;20097;-56
2022/07/08 05:27:49;;;;;;;5.18;1.80;;;;;;;23.42;47.74;100643.59;18563645;31;20397;-56
2022/07/08 05:37:52;;;;;;;2.20;1.33;;;;;;;23.74;44.85;100650.81;18559327;32;20437;-55
2022/07/08 05:47:57;;;;;;;5.07;2.03;;;;;;;24.00;45.93;100653.00;18558325;31;20096;-56
2022/07/08 05:58:00;;;;;;;2.85;1.60;;;;;;;24.10;46.02;100654.28;18557975;32;20114;-56
2022/07/08 06:08:05;;;;;;;2.20;1.50;;;;;;;23.37;44.97;100664.28;18564598;32;20084;-56
2022/07/08 06:18:09;;;;;;;2.78;1.42;;;;;;;24.17;43.48;100682.31;18566985;31;20100;-56
2022/07/08 06:28:14;;;;;;;1.60;1.40;;;;;;;24.70;41.01;100676.72;18565600;32;20107;-56
2022/07/08 06:38:17;;;;;;;4.12;1.62;;;;;;;25.07;40.04;100676.41;18565301;32;20096;-56
2022/07/08 06:48:21;;;;;;;3.35;1.55;;;;;;;25.68;37.87;100675.50;18564611;31;20161;-56
2022/07/08 06:58:24;;;;;;;4.57;2.00;;;;;;;25.88;37.58;100677.78;18564758;32;20105;-56
2022/07/08 07:08:29;;;;;;;4.18;2.03;;;;;;;26.06;37.77;100684.78;18563344;31;20115;-56
2022/07/08 07:18:33;;;;;;;2.70;1.70;;;;;;;26.10;38.14;100687.16;18581873;31;20160;-55
2022/07/08 07:28:38;;;;;;;3.15;1.60;;;;;;;26.78;36.93;100697.16;18626332;31;20483;-55
2022/07/08 07:38:42;;;;;;;4.75;1.77;;;;;;;27.22;36.25;100698.69;18623370;31;20118;-55
2022/07/08 07:48:46;;;;;;;3.65;1.73;;;;;;;27.36;36.16;100702.25;18627168;31;20114;-56
2022/07/08 07:58:50;;;;;;;3.45;1.83;;;;;;;27.65;35.61;100708.31;18629611;31;20108;-56
2022/07/08 08:08:56;;;;;;;5.20;1.92;;;;;;;27.80;35.38;100706.38;18616308;31;20387;-56
2022/07/08 08:18:59;;;;;;;2.47;1.45;;;;;;;27.53;35.14;100701.94;18571442;31;20092;-56
2022/07/08 08:29:04;;;;;;;2.75;1.58;;;;;;;28.76;34.07;100700.47;18562724;32;20092;-56
2022/07/08 08:39:10;;;;;;;2.75;1.77;;;;;;;29.55;31.90;100699.06;18561785;31;20112;-56
2022/07/08 08:49:20;;;;;;;2.47;1.58;;;;;;;28.90;31.90;100700.31;18561255;31;20198;-56
2022/07/08 08:59:23;;;;;;;4.03;2.00;;;;;;;29.13;31.11;100705.78;18561551;32;20107;-56
2022/07/08 09:09:28;;;;;;;4.40;1.60;;;;;;;28.91;31.16;100712.75;18559221;32;20092;-56
2022/07/08 09:19:31;;;;;;;2.12;1.45;;;;;;;28.44;31.45;100715.31;18560092;31;20102;-56
2022/07/08 09:29:36;;;;;;;2.72;1.60;;;;;;;29.01;30.50;100710.25;18559740;32;20088;-56
2022/07/08 09:39:39;;;;;;;5.00;1.70;;;;;;;29.02;29.36;100713.78;18562894;31;20093;-56
2022/07/08 09:49:45;;;;;;;3.00;1.62;;;;;;;29.81;29.06;100720.38;18567647;31;20096;-56
2022/07/08 09:59:48;;;;;;;2.12;1.35;;;;;;;30.27;28.79;100716.72;18566348;32;20139;-56
2022/07/08 10:09:52;;;;;;;2.83;1.50;;;;;;;30.66;28.57;100715.44;18551571;32;20095;-56
2022/07/08 10:19:56;;;;;;;1.80;1.50;;;;;;;31.12;28.04;100721.50;18565561;31;20092;-56
2022/07/08 10:30:14;;;;;;;2.03;1.40;;;;;;;31.70;26.79;100723.75;18565555;31;20088;-56
2022/07/08 10:40:48;;;;;;;3.60;1.37;;;;;;;29.32;29.08;100729.41;18565156;31;20099;-56
2022/07/08 10:50:53;;;;;;;3.50;1.70;;;;;;;29.12;29.38;100730.94;18574819;31;20152;-56
2022/07/08 11:01:24;;;;;;;3.33;1.80;;;;;;;29.06;31.01;100732.25;18595082;31;20097;-56
2022/07/08 11:11:29;;;;;;;3.12;1.87;;;;;;;29.07;30.11;100733.13;18564523;32;20080;-56
2022/07/08 11:21:33;;;;;;;2.22;1.58;;;;;;;28.34;31.48;100725.84;18593299;31;20223;-56
2022/07/08 11:31:37;;;;;;;2.75;1.70;;;;;;;28.34;29.23;100731.22;18629188;31;20104;-56
2022/07/08 11:41:47;;;;;;;2.50;1.80;;;;;;;30.39;27.64;100722.06;18628955;31;20108;-56
2022/07/08 11:51:54;;;;;;;5.15;1.77;;;;;;;30.28;30.24;100715.72;18613781;31;20096;-56
2022/07/08 12:01:59;;;;;;;4.12;1.60;;;;;;;29.57;28.54;100721.31;18611369;31;20110;-56
2022/07/08 12:12:06;;;;;;;2.67;1.65;;;;;;;29.53;28.57;100727.91;18615300;31;20188;-56
2022/07/08 12:22:10;;;;;;;4.03;1.65;;;;;;;29.11;29.09;100723.00;18595177;31;20084;-56
2022/07/08 12:32:14;;;;;;;12.88;1.85;;;;;;;29.42;28.76;100724.19;18627041;31;20092;-57
2022/07/08 12:42:25;;;;;;;3.45;1.70;;;;;;;29.16;29.56;100728.84;18602066;31;71364;-56
2022/07/08 12:52:29;;;;;;;;;;;;;;;27.17;34.25;100745.50;18604357;31;20104;-56
2022/07/08 13:02:32;;;;;;;2.47;1.75;;;;;;;28.26;34.35;100738.94;18588564;31;19971;-56
2022/07/08 13:12:37;;;;;;;3.20;1.70;;;;;;;28.53;35.15;100732.56;18558863;32;20092;-56
2022/07/08 13:22:40;;;;;;;2.90;1.58;;;;;;;28.65;35.58;100717.38;18558145;31;20084;-56
2022/07/08 13:32:45;;;;;;;2.30;1.75;;;;;;;29.16;33.58;100728.84;18577635;31;20102;-56
2022/07/08 13:42:48;;;;;;;7.57;1.92;;;;;;;29.60;31.28;100708.47;18557482;31;20114;-56
2022/07/08 13:52:53;;;;;;;3.85;1.80;;;;;;;29.41;29.77;100711.72;18610820;31;20091;-56
2022/07/08 14:02:57;;;;;;;2.72;1.80;;;;;;;29.84;29.82;100709.34;18590196;31;20118;-56
2022/07/08 14:13:01;;;;;;;2.05;1.60;;;;;;;30.82;27.67;100707.78;18613118;31;20147;-56
2022/07/08 14:23:05;;;;;;;4.85;1.85;;;;;;;30.44;28.81;100707.25;18605022;31;20099;-55
2022/07/08 14:33:09;;;;;;;3.65;1.98;;;;;;;30.28;29.11;100694.19;18630888;31;20088;-56
2022/07/08 14:43:14;;;;;;;3.95;2.10;;;;;;;29.79;29.29;100698.13;18630243;31;20115;-56
2022/07/08 14:53:19;;;;;;;3.40;1.62;;;;;;;30.17;28.67;100694.22;18630098;31;20456;-56
2022/07/08 15:03:23;;;;;;;2.90;1.70;;;;;;;29.91;27.43;100695.28;18600922;31;20115;-57
2022/07/08 15:13:28;;;;;;;4.15;1.80;;;;;;;29.98;28.20;100700.19;18560148;32;20118;-56
2022/07/08 15:23:32;;;;;;;3.97;1.60;;;;;;;29.55;27.81;100691.00;18578503;31;20357;-56
2022/07/08 15:33:41;;;;;;;4.50;1.70;;;;;;;30.11;27.17;100692.84;18567513;31;20144;-56
2022/07/08 15:43:44;;;;;;;3.15;1.70;;;;;;;29.26;29.02;100697.59;18563006;32;20485;-56
2022/07/08 15:53:49;;;;;;;4.70;1.90;;;;;;;29.19;28.51;100699.91;18592223;31;20136;-56
2022/07/08 16:03:52;;;;;;;2.42;1.67;;;;;;;29.45;29.08;100707.84;18604749;31;20111;-56
2022/07/08 16:13:57;;;;;;;4.32;1.95;;;;;;;29.45;28.79;100721.28;18624357;31;20100;-56
2022/07/08 16:24:00;;;;;;;2.72;1.83;;;;;;;28.55;31.47;100748.56;18623261;31;20132;-55
2022/07/08 16:34:09;;;;;;;5.15;2.65;;;;;;;27.97;33.89;100758.81;18628039;31;20095;-55
2022/07/08 16:44:13;;;;;;;3.33;1.80;;;;;;;27.12;37.02;100760.06;18626433;31;20102;-56
2022/07/08 16:54:17;;;;;;;2.85;1.62;;;;;;;26.93;37.85;100765.78;18626555;31;20398;-56
2022/07/08 17:04:21;;;;;;;2.72;1.90;;;;;;;26.62;38.30;100778.47;18626281;31;20096;-55
2022/07/08 17:14:25;;;;;;;2.90;1.90;;;;;;;26.20;39.00;100777.56;18625776;31;20092;-55
2022/07/08 17:24:31;;;;;;;4.28;2.10;;;;;;;26.01;39.23;100781.34;18624823;31;20470;-56
2022/07/08 17:34:38;;;;;;;5.20;1.98;;;;;;;26.04;39.03;100800.75;18611200;31;20502;-56
2022/07/08 17:44:41;;;;;;;4.93;1.75;;;;;;;25.96;39.53;100802.16;18624216;31;20103;-55
2022/07/08 17:54:46;;;;;;;3.15;1.75;;;;;;;26.11;39.81;100811.91;18623452;31;20084;-55
2022/07/08 18:04:49;;;;;;;2.33;1.50;;;;;;;25.86;40.23;100816.06;18631248;31;20120;-55
2022/07/08 18:14:54;;;;;;;3.70;1.52;;;;;;;25.54;41.94;100834.91;18631311;31;20095;-56
2022/07/08 18:24:58;;;;;;;2.67;1.48;;;;;;;25.83;42.03;100844.81;18631276;31;20110;-55
2022/07/08 18:35:03;;;;;;;3.25;1.37;;;;;;;25.33;44.22;100847.66;18628442;31;20119;-57
2022/07/08 18:45:07;;;;;;;2.08;1.35;;;;;;;24.98;44.84;100853.19;18577997;31;20393;-55
2022/07/08 18:55:12;;;;;;;3.25;1.42;;;;;;;24.88;44.37;100868.88;18618065;31;20140;-56
2022/07/08 19:05:16;;;;;;;3.42;1.45;;;;;;;24.69;44.43;100869.84;18621016;31;20115;-56
2022/07/08 19:15:21;;;;;;;2.83;1.45;;;;;;;24.55;44.42;100888.41;18599075;31;20110;-56
2022/07/08 19:25:24;;;;;;;2.53;1.10;;;;;;;24.40;44.81;100906.97;18590013;31;20100;-55
2022/07/08 19:35:29;;;;;;;1.98;1.10;;;;;;;24.18;45.21;100917.88;18615363;31;20100;-55
2022/07/08 19:45:32;;;;;;;2.90;1.08;;;;;;;24.25;44.13;100930.81;18613412;31;20345;-56
2022/07/08 19:55:37;;;;;;;1.95;1.10;;;;;;;24.14;42.18;100924.28;18582876;31;21952;-56
2022/07/08 20:05:41;;;;;;;1.42;1.17;;;;;;;23.83;41.38;100945.34;18565844;31;20124;-56
2022/07/08 20:15:45;;;;;;;2.25;1.08;;;;;;;24.04;41.02;100958.56;18580948;31;20100;-56
2022/07/08 20:25:50;;;;;;;2.53;1.30;;;;;;;24.05;41.56;100965.63;18589902;31;20114;-56
2022/07/08 20:35:56;;;;;;;1.37;1.10;;;;;;;23.94;41.89;100969.69;18591026;31;20365;-55
2022/07/08 20:46:00;;;;;;;3.28;1.40;;;;;;;23.76;41.67;100965.25;18591431;31;20111;-56
2022/07/08 20:56:05;;;;;;;1.85;1.17;;;;;;;24.08;41.39;100970.81;18585298;31;20127;-56
2022/07/08 21:06:08;;;;;;;1.37;1.12;;;;;;;23.82;43.38;100983.63;18577539;31;20102;-56
2022/07/08 21:16:13;;;;;;;2.37;1.37;;;;;;;23.49;44.41;100976.28;18582706;31;20092;-56
2022/07/08 21:26:17;;;;;;;1.73;1.05;;;;;;;23.41;44.45;100966.84;18560434;31;20108;-56
2022/07/08 21:36:22;;;;;;;3.37;1.33;;;;;;;23.32;42.79;100961.97;18576171;31;20131;-56
2022/07/08 21:46:25;;;;;;;1.25;0.85;;;;;;;23.46;42.74;100969.31;18595364;31;20182;-56
2022/07/08 21:56:30;;;;;;;2.75;1.10;;;;;;;23.07;44.02;100968.41;18621752;31;20104;-56
2022/07/08 22:06:33;;;;;;;2.05;1.20;;;;;;;23.21;43.69;100969.56;18619502;31;20092;-56
2022/07/08 22:16:38;;;;;;;2.90;1.25;;;;;;;22.76;44.42;100969.78;18619531;31;20139;-56
2022/07/08 22:26:41;;;;;;;2.12;1.30;;;;;;;22.69;45.06;100974.53;18556548;32;20172;-56
2022/07/08 22:36:46;;;;;;;2.25;1.10;;;;;;;22.34;46.16;100974.25;18564832;31;20334;-56
2022/07/08 22:46:49;;;;;;;3.67;1.50;;;;;;;22.68;44.00;100978.12;18613303;31;20103;-56
2022/07/08 22:56:56;;;;;;;3.62;1.40;;;;;;;22.69;44.29;100971.00;18620122;31;20414;-55
2022/07/08 23:06:59;;;;;;;4.18;1.48;;;;;;;22.65;44.80;100972.06;18564765;32;20096;-55
2022/07/08 23:17:05;;;;;;;2.28;1.20;;;;;;;22.33;46.91;100968.97;18597971;31;20427;-55
2022/07/08 23:27:08;;;;;;;2.08;1.40;;;;;;;22.48;45.98;100963.00;18629316;31;20096;-55
2022/07/08 23:37:13;;;;;;;1.90;1.35;;;;;;;21.94;48.40;100971.44;18629213;31;20092;-55
2022/07/08 23:47:17;;;;;;;4.25;1.73;;;;;;;22.30;46.40;100968.19;18627377;31;20080;-55
2022/07/08 23:57:22;;;;;;;2.53;1.30;;;;;;;21.84;46.95;100967.44;18562010;32;20084;-56
